createdAt,value
2023-04-05T00:00:43.527Z,63.58
2023-04-05T00:01:50.411Z,64.47
2023-04-05T00:02:53.093Z,64.23
2023-04-05T00:03:58.718Z,63.48
2023-04-05T00:05:00.952Z,63.05
2023-04-05T00:06:05.670Z,63.88
2023-04-05T00:07:08.806Z,63.80
2023-04-05T00:08:18.561Z,64.53
2023-04-05T00:09:21.062Z,64.76
2023-04-05T00:10:22.905Z,64.24
2023-04-05T00:11:25.949Z,65.09
2023-04-05T00:12:27.727Z,64.63
2023-04-05T00:13:30.868Z,63.91
2023-04-05T00:14:32.666Z,63.63
2023-04-05T00:15:34.503Z,63.71
2023-04-05T00:16:36.850Z,64.16
2023-04-05T00:17:38.745Z,63.55
2023-04-05T00:18:46.382Z,62.79
2023-04-05T00:19:51.843Z,63.12
2023-04-05T00:20:54.262Z,62.74
2023-04-05T00:21:56.065Z,62.67
2023-04-05T00:22:57.840Z,63.83
2023-04-05T00:24:00.150Z,63.59
2023-04-05T00:25:02.739Z,62.71
2023-04-05T00:26:04.650Z,63.62
2023-04-05T00:27:06.449Z,63.50
2023-04-05T00:28:08.282Z,63.49
2023-04-05T00:29:10.051Z,63.81
2023-04-05T00:30:12.227Z,64.04
2023-04-05T00:31:14.064Z,64.01
2023-04-05T00:32:15.913Z,63.79
2023-04-05T00:33:17.699Z,63.72
2023-04-05T00:34:19.493Z,63.92
2023-04-05T00:35:21.636Z,63.51
2023-04-05T00:36:23.525Z,64.24
2023-04-05T00:37:25.503Z,64.29
2023-04-05T00:38:27.273Z,64.46
2023-04-05T00:39:29.076Z,63.76
2023-04-05T00:40:30.945Z,63.72
2023-04-05T00:41:32.790Z,64.38
2023-04-05T00:42:34.654Z,64.53
2023-04-05T00:43:37.378Z,64.87
2023-04-05T00:44:39.165Z,64.08
2023-04-05T00:45:42.798Z,64.18
2023-04-05T00:46:44.662Z,66.11
2023-04-05T00:47:46.540Z,64.60
2023-04-05T00:48:48.409Z,64.22
2023-04-05T00:49:50.256Z,64.84
2023-04-05T00:50:52.763Z,64.82
2023-04-05T00:51:55.067Z,65.15
2023-04-05T00:52:57.726Z,64.69
2023-04-05T00:54:00.816Z,64.72
2023-04-05T00:55:02.717Z,64.69
2023-04-05T00:56:04.495Z,64.29
2023-04-05T00:57:07.601Z,65.29
2023-04-05T00:58:10.602Z,65.35
2023-04-05T00:59:12.638Z,65.17
2023-04-05T01:00:15.648Z,64.75
2023-04-05T01:01:18.908Z,65.02
2023-04-05T01:02:26.428Z,65.24
2023-04-05T01:03:31.027Z,65.33
2023-04-05T01:04:37.101Z,66.31
2023-04-05T01:05:38.948Z,65.63
2023-04-05T01:06:44.895Z,65.56
2023-04-05T01:07:51.455Z,65.80
2023-04-05T01:09:09.419Z,65.93
2023-04-05T01:10:13.862Z,66.16
2023-04-05T01:11:16.656Z,65.95
2023-04-05T01:12:19.176Z,65.47
2023-04-05T01:13:21.291Z,65.25
2023-04-05T01:14:23.034Z,64.59
2023-04-05T01:15:24.831Z,65.14
2023-04-05T01:16:27.459Z,65.10
2023-04-05T01:17:37.043Z,65.74
2023-04-05T01:18:39.042Z,65.23
2023-04-05T01:19:42.446Z,64.63
2023-04-05T01:20:53.239Z,64.91
2023-04-05T01:22:18.012Z,65.37
2023-04-05T01:23:45.962Z,64.44
2023-04-05T01:25:14.866Z,64.46
2023-04-05T01:26:25.989Z,64.57
2023-04-05T01:27:44.129Z,64.42
2023-04-05T01:28:46.142Z,65.26
2023-04-05T01:30:04.562Z,64.46
2023-04-05T01:31:12.361Z,64.08
2023-04-05T01:32:17.130Z,64.44
2023-04-05T01:33:37.921Z,65.07
2023-04-05T01:34:52.021Z,64.49
2023-04-05T01:36:01.729Z,65.99
2023-04-05T01:37:06.422Z,65.57
2023-04-05T01:38:11.247Z,66.56
2023-04-05T01:39:15.029Z,67.00
2023-04-05T01:40:17.072Z,67.33
2023-04-05T01:41:18.965Z,67.23
2023-04-05T01:42:27.614Z,68.00
2023-04-05T01:43:29.558Z,68.11
2023-04-05T01:44:31.384Z,67.27
2023-04-05T01:45:33.274Z,68.05
2023-04-05T01:46:35.191Z,67.74
2023-04-05T01:47:36.972Z,67.76
2023-04-05T01:48:38.797Z,66.99
2023-04-05T01:49:40.592Z,67.59
2023-04-05T01:50:42.689Z,66.72
2023-04-05T01:51:44.690Z,66.86
2023-04-05T01:52:46.620Z,65.89
2023-04-05T01:53:48.386Z,66.67
2023-04-05T01:54:50.186Z,66.01
2023-04-05T01:55:52.037Z,65.79
2023-04-05T01:56:53.788Z,65.43
2023-04-05T01:57:56.847Z,65.93
2023-04-05T01:58:58.772Z,65.05
2023-04-05T02:00:00.672Z,64.96
2023-04-05T02:01:02.545Z,65.08
2023-04-05T02:02:04.413Z,64.77
2023-04-05T02:03:06.652Z,65.07
2023-04-05T02:04:08.426Z,65.17
2023-04-05T02:05:10.214Z,65.32
2023-04-05T02:06:12.073Z,65.43
2023-04-05T02:07:13.919Z,65.88
2023-04-05T02:08:16.208Z,65.20
2023-04-05T02:09:18.020Z,65.80
2023-04-05T02:10:20.451Z,64.43
2023-04-05T02:11:22.218Z,64.69
2023-04-05T02:12:24.098Z,64.61
2023-04-05T02:13:26.845Z,65.42
2023-04-05T02:14:29.085Z,64.67
2023-04-05T02:15:30.880Z,64.18
2023-04-05T02:16:35.215Z,63.98
2023-04-05T02:17:40.323Z,64.80
2023-04-05T02:18:42.248Z,64.60
2023-04-05T02:19:46.494Z,64.52
2023-04-05T02:20:50.238Z,63.57
2023-04-05T02:21:53.941Z,64.17
2023-04-05T02:22:56.117Z,64.24
2023-04-05T02:23:57.883Z,64.21
2023-04-05T02:24:59.639Z,64.13
2023-04-05T02:26:01.436Z,64.24
2023-04-05T02:27:03.260Z,63.55
2023-04-05T02:28:05.036Z,64.34
2023-04-05T02:29:06.946Z,64.19
2023-04-05T02:30:09.703Z,63.32
2023-04-05T02:31:12.305Z,63.22
2023-04-05T02:32:14.143Z,64.12
2023-04-05T02:33:15.933Z,63.93
2023-04-05T02:34:17.772Z,64.28
2023-04-05T02:35:21.480Z,64.45
2023-04-05T02:36:23.259Z,63.43
2023-04-05T02:37:26.394Z,63.52
2023-04-05T02:38:28.229Z,64.13
2023-04-05T02:39:30.103Z,64.84
2023-04-05T02:40:32.210Z,64.85
2023-04-05T02:41:33.957Z,64.53
2023-04-05T02:42:36.466Z,64.30
2023-04-05T02:43:38.742Z,64.97
2023-04-05T02:44:40.950Z,64.65
2023-04-05T02:45:43.566Z,65.82
2023-04-05T02:46:46.573Z,66.98
2023-04-05T02:47:48.895Z,66.50
2023-04-05T02:48:50.753Z,66.62
2023-04-05T02:49:52.586Z,66.98
2023-04-05T02:50:55.431Z,66.84
2023-04-05T02:51:57.263Z,66.63
2023-04-05T02:52:59.040Z,67.12
2023-04-05T02:54:02.058Z,67.97
2023-04-05T02:55:05.596Z,67.55
2023-04-05T02:56:08.054Z,67.88
2023-04-05T02:57:11.857Z,67.33
2023-04-05T02:58:14.572Z,67.70
2023-04-05T02:59:17.975Z,67.50
2023-04-05T03:00:20.247Z,67.34
2023-04-05T03:01:22.862Z,67.21
2023-04-05T03:02:24.694Z,66.43
2023-04-05T03:03:26.581Z,66.59
2023-04-05T03:04:28.545Z,67.39
2023-04-05T03:05:30.615Z,66.98
2023-04-05T03:06:32.421Z,66.23
2023-04-05T03:07:35.813Z,66.36
2023-04-05T03:08:39.093Z,67.64
2023-04-05T03:09:40.930Z,67.12
2023-04-05T03:10:45.185Z,67.83
2023-04-05T03:11:47.132Z,67.90
2023-04-05T03:12:48.924Z,67.95
2023-04-05T03:13:50.723Z,66.90
2023-04-05T03:14:52.503Z,67.07
2023-04-05T03:15:55.260Z,66.81
2023-04-05T03:16:57.376Z,67.49
2023-04-05T03:17:59.236Z,67.74
2023-04-05T03:19:01.057Z,67.66
2023-04-05T03:20:03.941Z,67.48
2023-04-05T03:21:06.275Z,67.49
2023-04-05T03:22:08.135Z,67.39
2023-04-05T03:23:09.971Z,66.81
2023-04-05T03:24:11.803Z,66.52
2023-04-05T03:25:13.515Z,66.86
2023-04-05T03:26:15.751Z,67.56
2023-04-05T03:27:19.141Z,66.72
2023-04-05T03:28:20.910Z,66.71
2023-04-05T03:29:22.687Z,67.84
2023-04-05T03:30:24.448Z,67.97
2023-04-05T03:31:26.330Z,67.08
2023-04-05T03:32:28.165Z,66.78
2023-04-05T03:33:29.934Z,67.10
2023-04-05T03:34:31.698Z,66.73
2023-04-05T03:35:33.628Z,66.51
2023-04-05T03:36:42.110Z,66.03
2023-04-05T03:37:43.936Z,66.78
2023-04-05T03:38:48.014Z,66.99
2023-04-05T03:39:49.880Z,66.83
2023-04-05T03:40:51.724Z,66.48
2023-04-05T03:41:53.604Z,66.76
2023-04-05T03:42:55.387Z,66.18
2023-04-05T03:43:57.122Z,66.79
2023-04-05T03:45:00.263Z,66.42
2023-04-05T03:46:02.063Z,66.64
2023-04-05T03:47:03.938Z,66.52
2023-04-05T03:48:05.893Z,66.69
2023-04-05T03:49:07.953Z,65.97
2023-04-05T03:50:09.843Z,66.21
2023-04-05T03:51:12.040Z,66.61
2023-04-05T03:52:13.867Z,66.53
2023-04-05T03:53:19.247Z,66.36
2023-04-05T03:54:22.198Z,67.56
2023-04-05T03:55:24.119Z,67.61
2023-04-05T03:56:26.005Z,68.12
2023-04-05T03:57:29.517Z,68.41
2023-04-05T03:58:31.280Z,67.46
2023-04-05T03:59:33.244Z,68.23
2023-04-05T04:00:35.068Z,67.63
2023-04-05T04:01:37.221Z,67.57
2023-04-05T04:02:39.049Z,67.25
2023-04-05T04:03:40.855Z,67.14
2023-04-05T04:04:42.650Z,66.52
2023-04-05T04:05:44.770Z,66.51
2023-04-05T04:06:47.125Z,66.96
2023-04-05T04:07:49.034Z,66.49
2023-04-05T04:08:50.966Z,66.59
2023-04-05T04:09:55.716Z,66.34
2023-04-05T04:10:57.596Z,66.25
2023-04-05T04:11:59.425Z,67.02
2023-04-05T04:13:01.249Z,66.20
2023-04-05T04:14:03.120Z,66.26
2023-04-05T04:15:06.050Z,66.52
2023-04-05T04:16:07.924Z,66.71
2023-04-05T04:17:09.726Z,66.46
2023-04-05T04:18:12.292Z,66.45
2023-04-05T04:19:14.044Z,66.73
2023-04-05T04:20:16.082Z,66.60
2023-04-05T04:21:19.341Z,66.55
2023-04-05T04:22:21.196Z,66.36
2023-04-05T04:23:23.172Z,66.12
2023-04-05T04:24:27.332Z,66.51
2023-04-05T04:25:31.158Z,66.11
2023-04-05T04:26:37.766Z,66.34
2023-04-05T04:27:42.161Z,65.93
2023-04-05T04:28:44.057Z,67.15
2023-04-05T04:29:48.888Z,66.26
2023-04-05T04:30:51.244Z,66.55
2023-04-05T04:31:53.305Z,67.31
2023-04-05T04:32:55.487Z,66.76
2023-04-05T04:33:58.053Z,67.25
2023-04-05T04:34:59.855Z,67.39
2023-04-05T04:36:07.397Z,66.89
2023-04-05T04:37:09.238Z,66.77
2023-04-05T04:38:18.800Z,66.77
2023-04-05T04:39:23.108Z,67.41
2023-04-05T04:40:26.134Z,67.30
2023-04-05T04:41:28.003Z,67.65
2023-04-05T04:42:33.960Z,68.11
2023-04-05T04:43:43.099Z,68.32
2023-04-05T04:44:44.933Z,68.02
2023-04-05T04:45:50.312Z,67.25
2023-04-05T04:46:55.104Z,67.65
2023-04-05T04:47:56.880Z,67.88
2023-04-05T04:48:58.697Z,69.11
2023-04-05T04:50:00.529Z,68.83
2023-04-05T04:51:02.839Z,68.27
2023-04-05T04:52:04.760Z,68.41
2023-04-05T04:53:07.026Z,67.48
2023-04-05T04:54:08.898Z,68.00
2023-04-05T04:55:13.882Z,67.24
2023-04-05T04:56:16.258Z,67.64
2023-04-05T04:57:18.007Z,67.56
2023-04-05T04:58:19.814Z,67.79
2023-04-05T04:59:21.678Z,68.36
2023-04-05T05:00:24.421Z,67.89
2023-04-05T05:01:26.766Z,68.67
2023-04-05T05:02:31.002Z,68.06
2023-04-05T05:03:34.877Z,68.29
2023-04-05T05:04:36.901Z,68.75
2023-04-05T05:05:45.443Z,68.49
2023-04-05T05:06:47.325Z,68.79
2023-04-05T05:07:49.154Z,69.11
2023-04-05T05:08:51.292Z,68.21
2023-04-05T05:09:54.577Z,68.34
2023-04-05T05:10:56.855Z,69.73
2023-04-05T05:11:59.755Z,69.41
2023-04-05T05:13:01.923Z,68.48
2023-04-05T05:14:03.725Z,69.08
2023-04-05T05:15:05.928Z,68.60
2023-04-05T05:16:09.303Z,68.44
2023-04-05T05:17:11.228Z,68.67
2023-04-05T05:18:13.078Z,69.93
2023-04-05T05:19:14.823Z,69.79
2023-04-05T05:20:16.657Z,70.46
2023-04-05T05:21:18.482Z,69.53
2023-04-05T05:22:20.243Z,70.05
2023-04-05T05:23:24.126Z,70.12
2023-04-05T05:24:26.599Z,68.97
2023-04-05T05:25:28.524Z,69.47
2023-04-05T05:26:31.264Z,69.37
2023-04-05T05:27:34.222Z,69.56
2023-04-05T05:28:37.379Z,70.04
2023-04-05T05:29:39.194Z,69.64
2023-04-05T05:30:41.417Z,69.09
2023-04-05T05:31:43.384Z,69.53
2023-04-05T05:32:45.154Z,68.76
2023-04-05T05:33:49.796Z,69.31
2023-04-05T05:34:51.623Z,68.87
2023-04-05T05:35:53.503Z,68.77
2023-04-05T05:36:55.845Z,69.32
2023-04-05T05:37:57.681Z,68.72
2023-04-05T05:38:59.664Z,68.63
2023-04-05T05:40:01.462Z,69.32
2023-04-05T05:41:03.327Z,68.59
2023-04-05T05:42:05.268Z,69.22
2023-04-05T05:43:07.267Z,68.46
2023-04-05T05:44:09.112Z,69.26
2023-04-05T05:45:11.191Z,68.77
2023-04-05T05:46:13.277Z,68.34
2023-04-05T05:47:15.152Z,68.85
2023-04-05T05:48:16.979Z,70.01
2023-04-05T05:49:18.824Z,69.49
2023-04-05T05:50:20.934Z,69.35
2023-04-05T05:51:22.921Z,68.95
2023-04-05T05:52:25.094Z,69.02
2023-04-05T05:53:26.957Z,68.68
2023-04-05T05:54:28.728Z,68.70
2023-04-05T05:55:30.888Z,69.36
2023-04-05T05:56:32.698Z,68.94
2023-04-05T05:57:34.472Z,69.05
2023-04-05T05:58:37.028Z,68.66
2023-04-05T05:59:38.930Z,68.49
2023-04-05T06:00:40.978Z,68.91
2023-04-05T06:01:46.774Z,68.09
2023-04-05T06:02:49.345Z,69.25
2023-04-05T06:03:51.409Z,68.91
2023-04-05T06:04:53.410Z,68.87
2023-04-05T06:05:56.526Z,67.78
2023-04-05T06:06:58.402Z,68.07
2023-04-05T06:08:00.241Z,68.00
2023-04-05T06:09:02.031Z,68.68
2023-04-05T06:10:07.925Z,67.86
2023-04-05T06:11:17.434Z,66.72
2023-04-05T06:12:21.327Z,66.51
2023-04-05T06:13:23.153Z,66.37
2023-04-05T06:14:25.383Z,66.73
2023-04-05T06:15:27.487Z,66.43
2023-04-05T06:16:31.166Z,66.25
2023-04-05T06:17:34.385Z,66.56
2023-04-05T06:18:36.678Z,66.45
2023-04-05T06:19:38.580Z,66.27
2023-04-05T06:20:44.728Z,66.70
2023-04-05T06:21:46.618Z,67.05
2023-04-05T06:22:48.476Z,66.71
2023-04-05T06:23:50.270Z,66.90
2023-04-05T06:24:52.160Z,67.72
2023-04-05T06:25:53.980Z,67.12
2023-04-05T06:26:55.807Z,66.89
2023-04-05T06:27:57.517Z,65.94
2023-04-05T06:28:59.260Z,66.48
2023-04-05T06:30:01.111Z,66.76
2023-04-05T06:31:02.889Z,65.92
2023-04-05T06:32:04.810Z,65.65
2023-04-05T06:33:06.679Z,64.70
2023-04-05T06:34:08.536Z,64.90
2023-04-05T06:35:10.541Z,65.22
2023-04-05T06:36:12.723Z,64.56
2023-04-05T06:37:14.710Z,64.48
2023-04-05T06:38:16.488Z,63.19
2023-04-05T06:39:18.460Z,63.86
2023-04-05T06:40:21.064Z,63.41
2023-04-05T06:41:23.299Z,63.26
2023-04-05T06:42:26.474Z,62.78
2023-04-05T06:43:29.642Z,62.51
2023-04-05T06:44:31.417Z,62.32
2023-04-05T06:45:33.329Z,63.05
2023-04-05T06:46:35.254Z,63.44
2023-04-05T06:47:37.834Z,63.06
2023-04-05T06:48:40.328Z,62.82
2023-04-05T06:49:42.133Z,62.75
2023-04-05T06:50:43.953Z,62.08
2023-04-05T06:51:45.733Z,60.76
2023-04-05T06:52:47.558Z,58.89
2023-04-05T06:53:49.372Z,60.47
2023-04-05T06:54:51.531Z,59.02
2023-04-05T06:55:57.042Z,58.94
2023-04-05T06:57:01.682Z,59.37
2023-04-05T06:58:03.773Z,57.21
2023-04-05T06:59:05.912Z,58.63
2023-04-05T07:00:14.358Z,57.54
2023-04-05T07:01:17.692Z,56.34
2023-04-05T07:02:20.030Z,57.25
2023-04-05T07:03:21.831Z,58.12
2023-04-05T07:04:23.658Z,58.87
2023-04-05T07:05:25.590Z,58.83
2023-04-05T07:06:27.438Z,58.45
2023-04-05T07:07:29.245Z,58.73
2023-04-05T07:08:32.083Z,55.94
2023-04-05T07:09:33.944Z,56.61
2023-04-05T07:10:35.972Z,56.05
2023-04-05T07:11:39.283Z,57.53
2023-04-05T07:12:41.438Z,57.91
2023-04-05T07:13:43.277Z,57.85
2023-04-05T07:14:45.142Z,59.24
2023-04-05T07:15:47.386Z,57.75
2023-04-05T07:16:49.838Z,58.20
2023-04-05T07:17:51.908Z,57.10
2023-04-05T07:18:56.373Z,57.26
2023-04-05T07:19:58.129Z,58.27
2023-04-05T07:21:04.386Z,57.85
2023-04-05T07:22:06.254Z,57.77
2023-04-05T07:23:08.082Z,57.94
2023-04-05T07:24:09.944Z,56.10
2023-04-05T07:25:12.640Z,56.19
2023-04-05T07:26:14.467Z,56.55
2023-04-05T07:27:16.355Z,57.00
2023-04-05T07:28:18.200Z,56.41
2023-04-05T07:29:20.038Z,55.91
2023-04-05T07:30:21.845Z,56.24
2023-04-05T07:31:23.627Z,55.99
2023-04-05T07:32:25.661Z,56.10
2023-04-05T07:33:28.050Z,53.70
2023-04-05T07:34:29.901Z,54.50
2023-04-05T07:35:31.812Z,53.70
2023-04-05T07:36:35.911Z,54.45
2023-04-05T07:37:38.903Z,55.28
2023-04-05T07:38:41.605Z,55.04
2023-04-05T07:39:43.500Z,56.00
2023-04-05T07:40:45.207Z,53.84
2023-04-05T07:41:47.025Z,54.21
2023-04-05T07:42:48.789Z,53.19
2023-04-05T07:43:50.569Z,53.62
2023-04-05T07:44:52.327Z,53.89
2023-04-05T07:46:02.065Z,54.08
2023-04-05T07:47:04.303Z,54.21
2023-04-05T07:48:06.359Z,53.20
2023-04-05T07:49:08.165Z,53.41
2023-04-05T07:50:11.998Z,53.90
2023-04-05T07:51:13.829Z,54.20
2023-04-05T07:52:15.623Z,53.88
2023-04-05T07:53:17.429Z,54.19
2023-04-05T07:54:19.209Z,54.23
2023-04-05T07:55:21.661Z,54.32
2023-04-05T07:56:24.436Z,53.03
2023-04-05T07:57:26.259Z,53.39
2023-04-05T07:58:30.705Z,53.50
2023-04-05T07:59:32.501Z,53.77
2023-04-05T08:00:34.350Z,53.33
2023-04-05T08:01:36.370Z,53.63
2023-04-05T08:02:38.294Z,52.67
2023-04-05T08:03:40.515Z,53.54
2023-04-05T08:04:42.455Z,52.70
2023-04-05T08:05:44.327Z,53.42
2023-04-05T08:06:47.799Z,53.05
2023-04-05T08:07:49.564Z,52.16
2023-04-05T08:08:51.378Z,51.93
2023-04-05T08:09:57.712Z,51.51
2023-04-05T08:10:59.502Z,51.02
2023-04-05T08:12:02.970Z,50.10
2023-04-05T08:13:05.945Z,51.12
2023-04-05T08:14:07.824Z,52.22
2023-04-05T08:15:09.866Z,51.85
2023-04-05T08:16:11.886Z,51.67
2023-04-05T08:17:15.049Z,51.65
2023-04-05T08:18:17.017Z,51.10
2023-04-05T08:19:18.867Z,50.85
2023-04-05T08:20:20.802Z,50.67
2023-04-05T08:21:23.026Z,52.07
2023-04-05T08:22:28.228Z,53.51
2023-04-05T08:23:30.381Z,52.69
2023-04-05T08:24:32.222Z,51.53
2023-04-05T08:25:34.455Z,51.15
2023-04-05T08:26:36.366Z,52.09
2023-04-05T08:27:38.184Z,52.35
2023-04-05T08:28:40.105Z,51.70
2023-04-05T08:29:41.918Z,51.94
2023-04-05T08:30:43.813Z,50.58
2023-04-05T08:31:45.789Z,51.13
2023-04-05T08:32:47.589Z,51.95
2023-04-05T08:33:49.439Z,50.74
2023-04-05T08:34:51.312Z,52.44
2023-04-05T08:35:53.392Z,51.17
2023-04-05T08:36:58.417Z,51.72
2023-04-05T08:38:00.192Z,52.16
2023-04-05T08:39:02.098Z,50.57
2023-04-05T08:40:04.800Z,50.10
2023-04-05T08:41:21.181Z,49.61
2023-04-05T08:42:37.060Z,48.29
2023-04-05T08:43:58.247Z,47.51
2023-04-05T08:45:03.632Z,47.92
2023-04-05T08:46:07.744Z,48.02
2023-04-05T08:47:15.245Z,48.57
2023-04-05T08:48:17.766Z,48.28
2023-04-05T08:49:19.585Z,48.39
2023-04-05T08:50:22.040Z,48.53
2023-04-05T08:51:24.533Z,48.22
2023-04-05T08:52:26.444Z,48.69
2023-04-05T08:53:28.398Z,48.88
2023-04-05T08:54:30.232Z,50.55
2023-04-05T08:55:32.244Z,49.28
2023-04-05T08:56:35.352Z,50.83
2023-04-05T08:57:39.182Z,51.54
2023-04-05T08:58:41.812Z,49.62
2023-04-05T08:59:44.849Z,47.84
2023-04-05T09:00:46.937Z,49.04
2023-04-05T09:01:50.457Z,50.31
2023-04-05T09:02:57.128Z,48.27
2023-04-05T09:04:05.645Z,48.57
2023-04-05T09:05:09.286Z,50.18
2023-04-05T09:06:13.024Z,49.41
2023-04-05T09:07:15.293Z,49.19
2023-04-05T09:08:17.400Z,48.63
2023-04-05T09:09:21.163Z,47.43
2023-04-05T09:10:23.567Z,48.76
2023-04-05T09:11:25.892Z,47.00
2023-04-05T09:12:28.445Z,47.90
2023-04-05T09:13:31.162Z,45.54
2023-04-05T09:14:34.373Z,49.00
2023-04-05T09:15:39.657Z,48.95
2023-04-05T09:16:42.598Z,47.89
2023-04-05T09:17:44.614Z,46.01
2023-04-05T09:18:46.824Z,46.91
2023-04-05T09:19:51.448Z,46.15
2023-04-05T09:20:56.592Z,45.31
2023-04-05T09:22:02.306Z,49.34
2023-04-05T09:23:04.169Z,48.94
2023-04-05T09:24:06.514Z,50.93
2023-04-05T09:25:08.547Z,46.91
2023-04-05T09:26:19.900Z,46.70
2023-04-05T09:27:21.776Z,45.79
2023-04-05T09:28:23.572Z,46.87
2023-04-05T09:29:31.490Z,46.24
2023-04-05T09:30:33.763Z,45.27
2023-04-05T09:31:36.674Z,47.21
2023-04-05T09:32:46.940Z,48.21
2023-04-05T09:33:48.759Z,49.31
2023-04-05T09:34:53.977Z,45.98
2023-04-05T09:35:56.182Z,47.58
2023-04-05T09:36:58.075Z,45.66
2023-04-05T09:38:00.766Z,46.91
2023-04-05T09:39:10.028Z,45.94
2023-04-05T09:40:14.716Z,45.48
2023-04-05T09:41:16.586Z,44.68
2023-04-05T09:42:19.570Z,44.21
2023-04-05T09:43:40.262Z,46.85
2023-04-05T09:45:01.510Z,44.39
2023-04-05T09:46:03.437Z,44.29
2023-04-05T09:47:18.252Z,44.68
2023-04-05T09:48:20.553Z,44.44
2023-04-05T09:49:32.672Z,43.78
2023-04-05T09:50:34.585Z,41.94
2023-04-05T09:51:39.631Z,44.02
2023-04-05T09:52:41.573Z,43.63
2023-04-05T09:54:00.187Z,43.74
2023-04-05T09:55:03.376Z,42.52
2023-04-05T09:56:14.005Z,41.28
2023-04-05T09:57:16.291Z,39.90
2023-04-05T09:58:21.760Z,42.26
2023-04-05T09:59:23.735Z,43.04
2023-04-05T10:00:25.622Z,41.93
2023-04-05T10:01:29.097Z,42.10
2023-04-05T10:02:38.223Z,38.97
2023-04-05T10:03:49.753Z,38.54
2023-04-05T10:04:51.875Z,38.34
2023-04-05T10:05:56.942Z,40.54
2023-04-05T10:06:59.072Z,40.41
2023-04-05T10:08:02.285Z,41.76
2023-04-05T10:09:05.316Z,38.03
2023-04-05T10:10:07.271Z,37.51
2023-04-05T10:11:10.873Z,37.20
2023-04-05T10:12:24.340Z,39.59
2023-04-05T10:13:26.299Z,37.51
2023-04-05T10:14:28.072Z,37.14
2023-04-05T10:15:31.840Z,36.58
2023-04-05T10:16:37.052Z,38.79
2023-04-05T10:17:45.834Z,41.45
2023-04-05T10:18:50.917Z,40.69
2023-04-05T10:20:01.005Z,40.50
2023-04-05T10:21:02.897Z,43.45
2023-04-05T10:22:07.913Z,40.68
2023-04-05T10:23:12.616Z,40.73
2023-04-05T10:24:14.440Z,40.72
2023-04-05T10:25:16.145Z,36.84
2023-04-05T10:26:36.857Z,34.73
2023-04-05T10:27:48.822Z,33.42
2023-04-05T10:28:57.090Z,34.34
2023-04-05T10:30:04.955Z,35.01
2023-04-05T10:31:37.224Z,35.41
2023-04-05T10:32:46.365Z,39.17
2023-04-05T10:33:50.290Z,36.92
2023-04-05T10:34:57.974Z,39.60
2023-04-05T10:36:10.277Z,41.54
2023-04-05T10:37:23.038Z,40.88
2023-04-05T10:38:34.113Z,35.90
2023-04-05T10:39:41.764Z,34.61
2023-04-05T10:40:46.038Z,36.82
2023-04-05T10:41:48.843Z,37.21
2023-04-05T10:42:50.865Z,36.22
2023-04-05T10:43:57.205Z,36.99
2023-04-05T10:45:02.605Z,33.14
2023-04-05T10:46:04.894Z,31.43
2023-04-05T10:47:07.448Z,33.40
2023-04-05T10:48:27.785Z,33.38
2023-04-05T10:49:32.606Z,33.62
2023-04-05T10:50:35.617Z,34.24
2023-04-05T10:51:38.056Z,34.98
2023-04-05T10:52:41.040Z,34.74
2023-04-05T10:53:44.127Z,35.17
2023-04-05T10:54:45.991Z,32.48
2023-04-05T10:55:48.135Z,34.56
2023-04-05T10:56:50.804Z,34.69
2023-04-05T10:57:54.752Z,32.42
2023-04-05T10:58:57.075Z,29.87
2023-04-05T10:59:59.999Z,33.58
2023-04-05T11:01:02.593Z,33.89
2023-04-05T11:02:04.545Z,36.42
2023-04-05T11:03:06.990Z,36.50
2023-04-05T11:04:13.114Z,33.77
2023-04-05T11:05:32.450Z,35.32
2023-04-05T11:06:34.465Z,32.31
2023-04-05T11:07:44.434Z,34.33
2023-04-05T11:08:46.994Z,33.79
2023-04-05T11:09:55.577Z,36.33
2023-04-05T11:10:57.541Z,34.88
2023-04-05T11:11:59.358Z,31.27
2023-04-05T11:13:01.045Z,32.04
2023-04-05T11:14:17.156Z,36.00
2023-04-05T11:15:28.134Z,34.75
2023-04-05T11:16:40.088Z,33.86
2023-04-05T11:17:41.896Z,34.99
2023-04-05T11:18:47.954Z,34.27
2023-04-05T11:19:52.592Z,33.95
2023-04-05T11:21:05.783Z,33.62
2023-04-05T11:22:07.570Z,34.06
2023-04-05T11:23:13.415Z,31.49
2023-04-05T11:24:19.147Z,29.54
2023-04-05T11:25:25.087Z,30.32
2023-04-05T11:26:53.190Z,32.60
2023-04-05T11:28:01.347Z,33.43
2023-04-05T11:29:03.269Z,32.27
2023-04-05T11:30:06.420Z,33.63
2023-04-05T11:31:15.758Z,31.85
2023-04-05T11:32:17.795Z,30.30
2023-04-05T11:33:37.978Z,31.35
2023-04-05T11:34:42.144Z,31.47
2023-04-05T11:36:00.513Z,31.56
2023-04-05T11:37:02.323Z,32.11
2023-04-05T11:38:05.428Z,33.96
2023-04-05T11:39:19.426Z,32.97
2023-04-05T11:40:24.883Z,32.94
2023-04-05T11:41:33.114Z,33.16
2023-04-05T11:42:34.929Z,34.94
2023-04-05T11:43:38.710Z,30.81
2023-04-05T11:44:44.701Z,33.53
2023-04-05T11:45:48.013Z,32.18
2023-04-05T11:46:50.216Z,32.46
2023-04-05T11:47:52.276Z,32.45
2023-04-05T11:48:54.294Z,31.81
2023-04-05T11:49:56.178Z,31.02
2023-04-05T11:50:58.218Z,32.11
2023-04-05T11:52:09.898Z,31.42
2023-04-05T11:53:12.952Z,33.78
2023-04-05T11:54:33.359Z,32.67
2023-04-05T11:55:35.239Z,32.07
2023-04-05T11:56:37.891Z,31.12
2023-04-05T11:57:39.662Z,31.89
2023-04-05T11:58:41.989Z,32.43
2023-04-05T11:59:44.201Z,32.19
2023-04-05T12:00:46.362Z,29.66
2023-04-05T12:01:57.994Z,32.28
2023-04-05T12:02:59.905Z,32.20
2023-04-05T12:04:01.944Z,32.31
2023-04-05T12:05:03.948Z,30.24
2023-04-05T12:06:06.488Z,31.84
2023-04-05T12:07:08.753Z,30.91
2023-04-05T12:08:10.869Z,31.04
2023-04-05T12:09:12.738Z,29.86
2023-04-05T12:10:16.356Z,30.17
2023-04-05T12:11:24.291Z,29.35
2023-04-05T12:12:26.283Z,27.79
2023-04-05T12:13:32.649Z,30.55
2023-04-05T12:14:34.402Z,31.96
2023-04-05T12:15:41.195Z,31.99
2023-04-05T12:16:49.339Z,32.87
2023-04-05T12:17:52.994Z,29.95
2023-04-05T12:18:56.102Z,32.31
2023-04-05T12:19:57.936Z,29.50
2023-04-05T12:21:00.511Z,32.15
2023-04-05T12:22:02.489Z,30.12
2023-04-05T12:23:04.896Z,30.02
2023-04-05T12:24:06.854Z,29.41
2023-04-05T12:25:09.309Z,31.10
2023-04-05T12:26:11.423Z,29.45
2023-04-05T12:27:13.249Z,28.97
2023-04-05T12:28:15.062Z,29.95
2023-04-05T12:29:17.253Z,31.63
2023-04-05T12:30:20.247Z,31.76
2023-04-05T12:31:41.023Z,30.45
2023-04-05T12:32:47.157Z,28.24
2023-04-05T12:33:49.005Z,31.48
2023-04-05T12:34:50.766Z,29.84
2023-04-05T12:35:52.667Z,30.01
2023-04-05T12:36:54.444Z,31.63
2023-04-05T12:37:58.370Z,31.18
2023-04-05T12:39:00.857Z,31.88
2023-04-05T12:40:04.033Z,30.53
2023-04-05T12:41:05.934Z,30.21
2023-04-05T12:42:07.751Z,30.13
2023-04-05T12:43:09.850Z,30.32
2023-04-05T12:44:12.828Z,30.27
2023-04-05T12:45:14.879Z,30.74
2023-04-05T12:46:17.451Z,28.85
2023-04-05T12:47:19.319Z,27.73
2023-04-05T12:48:27.876Z,27.03
2023-04-05T12:49:29.707Z,28.51
2023-04-05T12:50:31.970Z,29.63
2023-04-05T12:51:34.262Z,30.86
2023-04-05T12:52:36.305Z,27.17
2023-04-05T12:53:44.889Z,29.35
2023-04-05T12:54:53.626Z,30.59
2023-04-05T12:55:56.268Z,29.39
2023-04-05T12:56:58.131Z,29.17
2023-04-05T12:58:01.628Z,29.58
2023-04-05T12:59:05.576Z,30.00
2023-04-05T13:00:07.789Z,29.45
2023-04-05T13:01:10.861Z,29.79
2023-04-05T13:02:12.832Z,28.85
2023-04-05T13:03:22.200Z,28.74
2023-04-05T13:04:26.149Z,28.03
2023-04-05T13:05:29.155Z,31.61
2023-04-05T13:06:31.815Z,29.69
2023-04-05T13:07:33.554Z,31.73
2023-04-05T13:08:35.641Z,29.10
2023-04-05T13:09:37.479Z,29.06
2023-04-05T13:10:39.374Z,30.33
2023-04-05T13:11:41.258Z,31.24
2023-04-05T13:12:43.695Z,31.01
2023-04-05T13:13:45.518Z,27.74
2023-04-05T13:14:47.264Z,27.71
2023-04-05T13:15:51.442Z,28.37
2023-04-05T13:16:53.981Z,28.40
2023-04-05T13:17:56.039Z,29.91
2023-04-05T13:18:57.856Z,29.13
2023-04-05T13:19:59.637Z,29.45
2023-04-05T13:21:05.265Z,29.10
2023-04-05T13:22:07.086Z,31.99
2023-04-05T13:23:12.467Z,31.02
2023-04-05T13:24:14.301Z,28.94
2023-04-05T13:25:16.314Z,30.76
2023-04-05T13:26:18.213Z,29.80
2023-04-05T13:27:21.943Z,29.36
2023-04-05T13:28:26.192Z,30.92
2023-04-05T13:29:27.926Z,30.04
2023-04-05T13:30:31.086Z,31.36
2023-04-05T13:31:33.942Z,29.48
2023-04-05T13:32:36.373Z,29.35
2023-04-05T13:33:38.141Z,30.27
2023-04-05T13:34:39.921Z,29.92
2023-04-05T13:35:42.223Z,28.96
2023-04-05T13:36:44.311Z,29.66
2023-04-05T13:37:46.215Z,29.00
2023-04-05T13:38:47.958Z,29.73
2023-04-05T13:39:49.844Z,29.72